sensor_id;sensor_type;location;lat;lon;timestamp;pressure;altitude;pressure_sealevel;temperature;humidity
9523;BME280;63165;43.016;25.784;2023-04-10T00:01:35;100299.91;;;8.04;75.41
9523;BME280;63165;43.016;25.784;2023-04-10T00:04:03;100312.06;;;8.07;75.17
9523;BME280;63165;43.016;25.784;2023-04-10T00:06:31;100296.44;;;7.99;75.16
9523;BME280;63165;43.016;25.784;2023-04-10T00:08:58;100304.25;;;7.99;75.20
9523;BME280;63165;43.016;25.784;2023-04-10T00:11:25;100292.94;;;8.00;75.49
9523;BME280;63165;43.016;25.784;2023-04-10T00:13:54;100295.56;;;8.03;75.34
9523;BME280;63165;43.016;25.784;2023-04-10T00:16:21;100284.28;;;8.03;75.12
9523;BME280;63165;43.016;25.784;2023-04-10T00:18:49;100291.22;;;7.97;75.68
9523;BME280;63165;43.016;25.784;2023-04-10T00:21:16;100288.63;;;7.97;75.47
9523;BME280;63165;43.016;25.784;2023-04-10T00:23:43;100287.78;;;7.95;75.38
9523;BME280;63165;43.016;25.784;2023-04-10T00:26:11;100282.56;;;7.88;75.70
9523;BME280;63165;43.016;25.784;2023-04-10T00:28:38;100286.03;;;7.90;75.18
9523;BME280;63165;43.016;25.784;2023-04-10T00:31:07;100275.63;;;7.85;75.29
9523;BME280;63165;43.016;25.784;2023-04-10T00:33:34;100279.97;;;7.82;75.11
9523;BME280;63165;43.016;25.784;2023-04-10T00:36:02;100276.50;;;7.81;75.01
9523;BME280;63165;43.016;25.784;2023-04-10T00:38:29;100273.91;;;7.78;75.20
9523;BME280;63165;43.016;25.784;2023-04-10T00:40:56;100278.25;;;7.67;75.51
9523;BME280;63165;43.016;25.784;2023-04-10T00:43:23;100283.47;;;7.64;75.34
9523;BME280;63165;43.016;25.784;2023-04-10T00:45:51;100280.00;;;7.66;75.29
9523;BME280;63165;43.016;25.784;2023-04-10T00:48:19;100272.19;;;7.68;75.06
9523;BME280;63165;43.016;25.784;2023-04-10T00:50:47;100274.81;;;7.63;75.07
9523;BME280;63165;43.016;25.784;2023-04-10T00:53:14;100271.34;;;7.60;74.54
9523;BME280;63165;43.016;25.784;2023-04-10T00:55:42;100274.81;;;7.52;74.89
9523;BME280;63165;43.016;25.784;2023-04-10T00:58:09;100271.34;;;7.43;74.64
9523;BME280;63165;43.016;25.784;2023-04-10T01:00:39;100279.16;;;7.26;75.20
9523;BME280;63165;43.016;25.784;2023-04-10T01:03:06;100273.06;;;7.24;75.30
9523;BME280;63165;43.016;25.784;2023-04-10T01:05:42;100280.00;;;7.15;75.52
9523;BME280;63165;43.016;25.784;2023-04-10T01:08:16;100268.75;;;7.16;75.55
9523;BME280;63165;43.016;25.784;2023-04-10T01:10:53;100278.25;;;7.05;75.68
9523;BME280;63165;43.016;25.784;2023-04-10T01:13:31;100278.25;;;6.96;75.83
9523;BME280;63165;43.016;25.784;2023-04-10T01:16:03;100271.31;;;6.99;75.77
9523;BME280;63165;43.016;25.784;2023-04-10T01:18:37;100267.81;;;6.93;76.13
9523;BME280;63165;43.016;25.784;2023-04-10T01:21:11;100266.09;;;6.89;76.44
9523;BME280;63165;43.016;25.784;2023-04-10T01:23:51;100267.81;;;6.90;76.50
9523;BME280;63165;43.016;25.784;2023-04-10T01:26:35;100270.41;;;6.90;76.50
9523;BME280;63165;43.016;25.784;2023-04-10T01:29:07;100266.06;;;6.86;76.12
9523;BME280;63165;43.016;25.784;2023-04-10T01:31:40;100274.72;;;6.80;76.31
9523;BME280;63165;43.016;25.784;2023-04-10T01:34:10;100273.00;;;6.82;76.38
9523;BME280;63165;43.016;25.784;2023-04-10T01:36:47;100269.56;;;6.85;76.11
9523;BME280;63165;43.016;25.784;2023-04-10T01:39:18;100272.13;;;6.82;76.23
9523;BME280;63165;43.016;25.784;2023-04-10T01:41:47;100267.78;;;6.80;76.29
9523;BME280;63165;43.016;25.784;2023-04-10T01:44:20;100273.88;;;6.78;76.35
9523;BME280;63165;43.016;25.784;2023-04-10T01:46:52;100268.66;;;6.76;76.13
9523;BME280;63165;43.016;25.784;2023-04-10T01:49:20;100278.16;;;6.71;75.63
9523;BME280;63165;43.016;25.784;2023-04-10T01:51:48;100281.63;;;6.69;75.95
9523;BME280;63165;43.016;25.784;2023-04-10T01:54:16;100279.06;;;6.70;75.98
9523;BME280;63165;43.016;25.784;2023-04-10T01:56:44;100280.75;;;6.65;75.52
9523;BME280;63165;43.016;25.784;2023-04-10T01:59:11;100272.97;;;6.60;75.58
9523;BME280;63165;43.016;25.784;2023-04-10T02:01:40;100267.75;;;6.53;75.85
9523;BME280;63165;43.016;25.784;2023-04-10T02:04:07;100270.31;;;6.50;76.01
9523;BME280;63165;43.016;25.784;2023-04-10T02:06:41;100270.31;;;6.44;75.78
9523;BME280;63165;43.016;25.784;2023-04-10T02:09:15;100274.63;;;6.41;76.04
9523;BME280;63165;43.016;25.784;2023-04-10T02:11:46;100274.59;;;6.37;75.45
9523;BME280;63165;43.016;25.784;2023-04-10T02:14:17;100268.50;;;6.30;76.07
9523;BME280;63165;43.016;25.784;2023-04-10T02:16:48;100276.28;;;6.24;76.10
9523;BME280;63165;43.016;25.784;2023-04-10T02:19:19;100281.47;;;6.19;76.38
9523;BME280;63165;43.016;25.784;2023-04-10T02:21:49;100276.22;;;6.15;76.12
9523;BME280;63165;43.016;25.784;2023-04-10T02:24:17;100276.22;;;6.12;76.61
9523;BME280;63165;43.016;25.784;2023-04-10T02:26:46;100282.25;;;6.08;76.77
9523;BME280;63165;43.016;25.784;2023-04-10T02:29:13;100279.66;;;6.06;77.06
9523;BME280;63165;43.016;25.784;2023-04-10T02:31:41;100281.38;;;6.02;76.98
9523;BME280;63165;43.016;25.784;2023-04-10T02:34:10;100271.81;;;6.01;77.33
9523;BME280;63165;43.016;25.784;2023-04-10T02:36:38;100288.25;;;5.97;77.12
9523;BME280;63165;43.016;25.784;2023-04-10T02:39:06;100278.69;;;5.95;77.24
9523;BME280;63165;43.016;25.784;2023-04-10T02:41:34;100266.56;;;5.94;77.27
9523;BME280;63165;43.016;25.784;2023-04-10T02:44:01;100261.34;;;5.92;77.11
9523;BME280;63165;43.016;25.784;2023-04-10T02:46:28;100263.94;;;5.89;77.14
9523;BME280;63165;43.016;25.784;2023-04-10T02:48:55;100266.50;;;5.83;77.43
9523;BME280;63165;43.016;25.784;2023-04-10T02:51:24;100261.31;;;5.80;77.65
9523;BME280;63165;43.016;25.784;2023-04-10T02:53:51;100267.34;;;5.79;77.58
9523;BME280;63165;43.016;25.784;2023-04-10T02:56:19;100264.72;;;5.77;77.58
9523;BME280;63165;43.016;25.784;2023-04-10T02:58:46;100275.94;;;5.73;77.63
9523;BME280;63165;43.016;25.784;2023-04-10T03:01:13;100270.72;;;5.67;77.61
9523;BME280;63165;43.016;25.784;2023-04-10T03:03:40;100273.31;;;5.66;78.12
9523;BME280;63165;43.016;25.784;2023-04-10T03:06:08;100275.03;;;5.63;77.91
9523;BME280;63165;43.016;25.784;2023-04-10T03:08:37;100270.69;;;5.59;77.75
9523;BME280;63165;43.016;25.784;2023-04-10T03:11:05;100287.97;;;5.59;78.11
9523;BME280;63165;43.016;25.784;2023-04-10T03:13:33;100279.28;;;5.55;77.97
9523;BME280;63165;43.016;25.784;2023-04-10T03:16:00;100284.47;;;5.57;78.08
9523;BME280;63165;43.016;25.784;2023-04-10T03:18:27;100279.28;;;5.57;78.23
9523;BME280;63165;43.016;25.784;2023-04-10T03:20:56;100295.72;;;5.54;77.90
9523;BME280;63165;43.016;25.784;2023-04-10T03:23:23;100291.38;;;5.53;78.21
9523;BME280;63165;43.016;25.784;2023-04-10T03:25:52;100284.44;;;5.49;77.78
9523;BME280;63165;43.016;25.784;2023-04-10T03:28:19;100287.88;;;5.45;77.84
9523;BME280;63165;43.016;25.784;2023-04-10T03:30:47;100289.59;;;5.43;77.55
9523;BME280;63165;43.016;25.784;2023-04-10T03:33:14;100293.00;;;5.39;77.42
9523;BME280;63165;43.016;25.784;2023-04-10T03:35:42;100291.25;;;5.36;77.53
9523;BME280;63165;43.016;25.784;2023-04-10T03:38:09;100290.38;;;5.34;78.00
9523;BME280;63165;43.016;25.784;2023-04-10T03:40:36;100291.22;;;5.32;77.85
9523;BME280;63165;43.016;25.784;2023-04-10T03:43:05;100298.13;;;5.33;78.34
9523;BME280;63165;43.016;25.784;2023-04-10T03:45:32;100299.91;;;5.35;78.46
9523;BME280;63165;43.016;25.784;2023-04-10T03:47:59;100298.19;;;5.39;78.13
9523;BME280;63165;43.016;25.784;2023-04-10T03:50:27;100299.03;;;5.36;77.92
9523;BME280;63165;43.016;25.784;2023-04-10T03:52:54;100306.75;;;5.30;78.21
9523;BME280;63165;43.016;25.784;2023-04-10T03:55:21;100315.38;;;5.24;78.45
9523;BME280;63165;43.016;25.784;2023-04-10T03:57:49;100316.25;;;5.28;78.17
9523;BME280;63165;43.016;25.784;2023-04-10T04:00:19;100311.09;;;5.30;78.15
9523;BME280;63165;43.016;25.784;2023-04-10T04:02:46;100311.94;;;5.29;78.34
9523;BME280;63165;43.016;25.784;2023-04-10T04:05:15;100306.72;;;5.24;78.12
9523;BME280;63165;43.016;25.784;2023-04-10T04:07:42;100309.25;;;5.16;77.83
9523;BME280;63165;43.016;25.784;2023-04-10T04:10:10;100305.72;;;5.11;78.43
9523;BME280;63165;43.016;25.784;2023-04-10T04:12:37;100305.69;;;5.08;78.52
9523;BME280;63165;43.016;25.784;2023-04-10T04:15:05;100305.66;;;5.06;78.49
9523;BME280;63165;43.016;25.784;2023-04-10T04:17:34;100306.59;;;5.12;78.48
9523;BME280;63165;43.016;25.784;2023-04-10T04:20:01;100310.94;;;5.14;79.04
9523;BME280;63165;43.016;25.784;2023-04-10T04:22:29;100315.31;;;5.18;78.71
9523;BME280;63165;43.016;25.784;2023-04-10T04:24:56;100320.50;;;5.18;78.73
9523;BME280;63165;43.016;25.784;2023-04-10T04:27:23;100319.63;;;5.16;78.53
9523;BME280;63165;43.016;25.784;2023-04-10T04:29:50;100323.88;;;5.14;79.10
9523;BME280;63165;43.016;25.784;2023-04-10T04:32:18;100316.13;;;5.16;79.12
9523;BME280;63165;43.016;25.784;2023-04-10T04:34:47;100330.91;;;5.23;79.49
9523;BME280;63165;43.016;25.784;2023-04-10T04:37:14;100326.66;;;5.30;79.51
9523;BME280;63165;43.016;25.784;2023-04-10T04:39:42;100328.44;;;5.35;79.66
9523;BME280;63165;43.016;25.784;2023-04-10T04:42:09;100321.56;;;5.42;80.19
9523;BME280;63165;43.016;25.784;2023-04-10T04:44:36;100330.25;;;5.47;80.68
9523;BME280;63165;43.016;25.784;2023-04-10T04:47:03;100339.84;;;5.54;81.00
9523;BME280;63165;43.016;25.784;2023-04-10T04:49:31;100333.88;;;5.63;81.36
9523;BME280;63165;43.016;25.784;2023-04-10T04:52:00;100330.47;;;5.73;81.63
9523;BME280;63165;43.016;25.784;2023-04-10T04:54:27;100327.94;;;5.81;81.76
9523;BME280;63165;43.016;25.784;2023-04-10T04:56:55;100330.59;;;5.90;81.91
9523;BME280;63165;43.016;25.784;2023-04-10T04:59:22;100336.75;;;5.97;82.34
9523;BME280;63165;43.016;25.784;2023-04-10T05:01:50;100327.25;;;6.05;82.55
9523;BME280;63165;43.016;25.784;2023-04-10T05:04:17;100336.84;;;6.14;83.40
9523;BME280;63165;43.016;25.784;2023-04-10T05:06:45;100323.91;;;6.25;83.72
9523;BME280;63165;43.016;25.784;2023-04-10T05:09:14;100327.44;;;6.37;84.33
9523;BME280;63165;43.016;25.784;2023-04-10T05:11:41;100320.56;;;6.50;84.26
9523;BME280;63165;43.016;25.784;2023-04-10T05:14:08;100332.75;;;6.65;84.09
9523;BME280;63165;43.016;25.784;2023-04-10T05:16:35;100323.28;;;6.79;84.43
9523;BME280;63165;43.016;25.784;2023-04-10T05:19:03;100324.19;;;6.91;84.50
9523;BME280;63165;43.016;25.784;2023-04-10T05:21:30;100325.09;;;7.05;84.60
9523;BME280;63165;43.016;25.784;2023-04-10T05:23:57;100334.66;;;7.18;84.65
9523;BME280;63165;43.016;25.784;2023-04-10T05:26:26;100329.47;;;7.32;84.73
9523;BME280;63165;43.016;25.784;2023-04-10T05:28:53;100332.06;;;7.43;84.51
9523;BME280;63165;43.016;25.784;2023-04-10T05:31:20;100328.59;;;7.56;84.71
9523;BME280;63165;43.016;25.784;2023-04-10T05:33:48;100331.22;;;7.69;84.77
9523;BME280;63165;43.016;25.784;2023-04-10T05:36:15;100331.19;;;7.81;83.98
9523;BME280;63165;43.016;25.784;2023-04-10T05:38:43;100327.72;;;7.88;83.02
9523;BME280;63165;43.016;25.784;2023-04-10T05:41:10;100345.06;;;7.98;82.56
9523;BME280;63165;43.016;25.784;2023-04-10T05:43:39;100333.78;;;8.07;82.99
9523;BME280;63165;43.016;25.784;2023-04-10T05:46:07;100336.34;;;8.23;83.12
9523;BME280;63165;43.016;25.784;2023-04-10T05:48:34;100332.84;;;8.36;82.85
9523;BME280;63165;43.016;25.784;2023-04-10T05:51:01;100337.16;;;8.51;82.61
9523;BME280;63165;43.016;25.784;2023-04-10T05:53:30;100337.97;;;8.64;82.31
9523;BME280;63165;43.016;25.784;2023-04-10T05:55:57;100325.75;;;8.77;82.17
9523;BME280;63165;43.016;25.784;2023-04-10T05:58:27;100331.78;;;8.91;81.56
9523;BME280;63165;43.016;25.784;2023-04-10T06:00:56;100323.84;;;9.05;81.13
9523;BME280;63165;43.016;25.784;2023-04-10T06:03:23;100321.19;;;9.19;80.78
9523;BME280;63165;43.016;25.784;2023-04-10T06:05:54;100323.69;;;9.31;79.60
9523;BME280;63165;43.016;25.784;2023-04-10T06:08:21;100323.63;;;9.40;79.08
9523;BME280;63165;43.016;25.784;2023-04-10T06:10:48;100321.78;;;9.51;78.94
9523;BME280;63165;43.016;25.784;2023-04-10T06:13:16;100325.16;;;9.67;78.87
9523;BME280;63165;43.016;25.784;2023-04-10T06:15:43;100318.94;;;9.82;78.87
9523;BME280;63165;43.016;25.784;2023-04-10T06:18:12;100317.84;;;10.02;78.89
9523;BME280;63165;43.016;25.784;2023-04-10T06:20:40;100313.25;;;10.25;78.59
9523;BME280;63165;43.016;25.784;2023-04-10T06:23:07;100304.31;;;10.48;78.48
9523;BME280;63165;43.016;25.784;2023-04-10T06:25:34;100300.56;;;10.67;77.60
9523;BME280;63165;43.016;25.784;2023-04-10T06:28:02;100302.00;;;10.90;77.25
9523;BME280;63165;43.016;25.784;2023-04-10T06:30:29;100300.81;;;11.13;76.55
9523;BME280;63165;43.016;25.784;2023-04-10T06:32:58;100299.63;;;11.34;75.59
9523;BME280;63165;43.016;25.784;2023-04-10T06:35:27;100301.97;;;11.51;74.44
9523;BME280;63165;43.016;25.784;2023-04-10T06:37:54;100304.28;;;11.69;74.47
9523;BME280;63165;43.016;25.784;2023-04-10T06:40:22;100307.50;;;11.83;72.65
9523;BME280;63165;43.016;25.784;2023-04-10T06:42:49;100303.88;;;11.94;71.53
9523;BME280;63165;43.016;25.784;2023-04-10T06:45:16;100305.50;;;12.01;70.74
9523;BME280;63165;43.016;25.784;2023-04-10T06:47:43;100306.22;;;12.09;69.63
9523;BME280;63165;43.016;25.784;2023-04-10T06:50:11;100311.31;;;12.17;69.08
9523;BME280;63165;43.016;25.784;2023-04-10T06:52:40;100311.25;;;12.21;68.80
9523;BME280;63165;43.016;25.784;2023-04-10T06:55:08;100319.00;;;12.28;67.45
9523;BME280;63165;43.016;25.784;2023-04-10T06:57:35;100314.56;;;12.30;66.94
9523;BME280;63165;43.016;25.784;2023-04-10T07:00:02;100323.19;;;12.36;66.40
9523;BME280;63165;43.016;25.784;2023-04-10T07:02:30;100318.66;;;12.45;66.04
9523;BME280;63165;43.016;25.784;2023-04-10T07:04:57;100321.94;;;12.54;65.41
9523;BME280;63165;43.016;25.784;2023-04-10T07:07:24;100310.31;;;12.66;65.02
9523;BME280;63165;43.016;25.784;2023-04-10T07:09:53;100304.06;;;12.72;64.45
9523;BME280;63165;43.016;25.784;2023-04-10T07:12:22;100310.84;;;12.84;64.03
9523;BME280;63165;43.016;25.784;2023-04-10T07:14:49;100311.63;;;12.89;63.98
9523;BME280;63165;43.016;25.784;2023-04-10T07:17:16;100306.13;;;12.98;63.99
9523;BME280;63165;43.016;25.784;2023-04-10T07:19:43;100308.66;;;13.04;64.01
9523;BME280;63165;43.016;25.784;2023-04-10T07:22:11;100314.59;;;13.11;63.34
9523;BME280;63165;43.016;25.784;2023-04-10T07:24:39;100315.38;;;13.16;63.58
9523;BME280;63165;43.016;25.784;2023-04-10T07:27:08;100309.94;;;13.24;63.12
9523;BME280;63165;43.016;25.784;2023-04-10T07:29:35;100316.84;;;13.28;62.92
9523;BME280;63165;43.016;25.784;2023-04-10T07:32:02;100312.44;;;13.30;62.29
9523;BME280;63165;43.016;25.784;2023-04-10T07:34:30;100306.13;;;13.38;61.79
9523;BME280;63165;43.016;25.784;2023-04-10T07:36:57;100309.44;;;13.47;60.99
9523;BME280;63165;43.016;25.784;2023-04-10T07:39:24;100305.88;;;13.48;60.91
9523;BME280;63165;43.016;25.784;2023-04-10T07:41:52;100308.28;;;13.57;60.81
9523;BME280;63165;43.016;25.784;2023-04-10T07:44:21;100310.66;;;13.68;60.10
9523;BME280;63165;43.016;25.784;2023-04-10T07:46:48;100298.13;;;13.77;60.09
9523;BME280;63165;43.016;25.784;2023-04-10T07:49:17;100303.16;;;13.87;59.63
9523;BME280;63165;43.016;25.784;2023-04-10T07:51:45;100299.50;;;13.92;59.47
9523;BME280;63165;43.016;25.784;2023-04-10T07:54:12;100301.97;;;13.98;59.24
9523;BME280;63165;43.016;25.784;2023-04-10T07:56:39;100301.69;;;14.09;58.90
9523;BME280;63165;43.016;25.784;2023-04-10T07:59:07;100310.38;;;14.11;58.51
9523;BME280;63165;43.016;25.784;2023-04-10T08:01:36;100299.78;;;14.14;58.61
9523;BME280;63165;43.016;25.784;2023-04-10T08:04:04;100297.81;;;14.23;58.29
9523;BME280;63165;43.016;25.784;2023-04-10T08:06:31;100309.06;;;14.28;57.67
9523;BME280;63165;43.016;25.784;2023-04-10T08:08:58;100293.22;;;14.31;57.37
9523;BME280;63165;43.016;25.784;2023-04-10T08:11:28;100297.44;;;14.36;56.99
9523;BME280;63165;43.016;25.784;2023-04-10T08:14:00;100302.47;;;14.44;56.70
9523;BME280;63165;43.016;25.784;2023-04-10T08:16:29;100295.13;;;14.55;56.52
9523;BME280;63165;43.016;25.784;2023-04-10T08:18:58;100288.69;;;14.66;55.72
9523;BME280;63165;43.016;25.784;2023-04-10T08:21:27;100288.47;;;14.73;55.57
9523;BME280;63165;43.016;25.784;2023-04-10T08:23:56;100286.59;;;14.77;55.56
9523;BME280;63165;43.016;25.784;2023-04-10T08:26:24;100290.78;;;14.84;55.50
9523;BME280;63165;43.016;25.784;2023-04-10T08:28:53;100289.41;;;15.01;55.17
9523;BME280;63165;43.016;25.784;2023-04-10T08:31:22;100277.63;;;15.12;55.35
9523;BME280;63165;43.016;25.784;2023-04-10T08:33:50;100281.53;;;15.27;55.00
9523;BME280;63165;43.016;25.784;2023-04-10T08:36:19;100271.41;;;15.42;54.76
9523;BME280;63165;43.016;25.784;2023-04-10T08:38:47;100274.38;;;15.58;54.25
9523;BME280;63165;43.016;25.784;2023-04-10T08:41:17;100259.78;;;15.74;53.91
9523;BME280;63165;43.016;25.784;2023-04-10T08:43:45;100254.06;;;15.88;53.20
9523;BME280;63165;43.016;25.784;2023-04-10T08:46:14;100248.31;;;16.00;53.80
9523;BME280;63165;43.016;25.784;2023-04-10T08:48:45;100240.88;;;16.11;52.82
9523;BME280;63165;43.016;25.784;2023-04-10T08:51:16;100241.06;;;16.30;52.56
9523;BME280;63165;43.016;25.784;2023-04-10T08:53:47;100240.25;;;16.52;52.59
9523;BME280;63165;43.016;25.784;2023-04-10T08:56:17;100240.34;;;16.73;51.84
9523;BME280;63165;43.016;25.784;2023-04-10T08:58:44;100237.88;;;16.92;51.19
9523;BME280;63165;43.016;25.784;2023-04-10T09:01:12;100228.56;;;17.03;50.76
9523;BME280;63165;43.016;25.784;2023-04-10T09:03:41;100226.50;;;17.12;50.24
9523;BME280;63165;43.016;25.784;2023-04-10T09:06:08;100222.16;;;17.31;49.24
9523;BME280;63165;43.016;25.784;2023-04-10T09:08:35;100226.72;;;17.48;48.34
9523;BME280;63165;43.016;25.784;2023-04-10T09:11:05;100213.72;;;17.64;48.44
9523;BME280;63165;43.016;25.784;2023-04-10T09:13:37;100216.94;;;17.71;47.41
9523;BME280;63165;43.016;25.784;2023-04-10T09:16:05;100211.94;;;17.85;46.48
9523;BME280;63165;43.016;25.784;2023-04-10T09:18:46;100206.44;;;17.90;45.47
9523;BME280;63165;43.016;25.784;2023-04-10T09:21:15;100195.03;;;18.08;45.15
9523;BME280;63165;43.016;25.784;2023-04-10T09:23:43;100186.53;;;18.20;45.12
9523;BME280;63165;43.016;25.784;2023-04-10T09:26:27;100188.38;;;18.37;44.59
9523;BME280;63165;43.016;25.784;2023-04-10T09:28:56;100169.03;;;18.54;44.51
9523;BME280;63165;43.016;25.784;2023-04-10T09:31:29;100175.47;;;18.68;44.19
9523;BME280;63165;43.016;25.784;2023-04-10T09:34:09;100173.59;;;18.70;43.18
9523;BME280;63165;43.016;25.784;2023-04-10T09:36:40;100168.09;;;18.74;43.38
9523;BME280;63165;43.016;25.784;2023-04-10T09:39:09;100165.66;;;18.70;43.12
9523;BME280;63165;43.016;25.784;2023-04-10T09:41:53;100155.44;;;18.79;43.36
9523;BME280;63165;43.016;25.784;2023-04-10T09:44:28;100151.00;;;18.81;43.00
9523;BME280;63165;43.016;25.784;2023-04-10T09:46:56;100152.63;;;18.84;42.68
9523;BME280;63165;43.016;25.784;2023-04-10T09:49:23;100143.22;;;18.77;41.93
9523;BME280;63165;43.016;25.784;2023-04-10T09:51:51;100141.25;;;18.63;41.73
9523;BME280;63165;43.016;25.784;2023-04-10T09:54:34;100145.41;;;18.50;42.14
9523;BME280;63165;43.016;25.784;2023-04-10T09:57:04;100138.06;;;18.37;42.57
9523;BME280;63165;43.016;25.784;2023-04-10T09:59:35;100140.22;;;18.29;43.13
9523;BME280;63165;43.016;25.784;2023-04-10T10:02:04;100144.44;;;18.14;42.81
9523;BME280;63165;43.016;25.784;2023-04-10T10:04:32;100140.00;;;17.96;42.94
9523;BME280;63165;43.016;25.784;2023-04-10T10:07:01;100149.16;;;17.89;43.25
9523;BME280;63165;43.016;25.784;2023-04-10T10:09:28;100142.38;;;17.81;43.39
9523;BME280;63165;43.016;25.784;2023-04-10T10:11:57;100136.34;;;17.78;43.62
9523;BME280;63165;43.016;25.784;2023-04-10T10:14:26;100134.00;;;17.72;43.54
9523;BME280;63165;43.016;25.784;2023-04-10T10:16:55;100136.03;;;17.65;43.72
9523;BME280;63165;43.016;25.784;2023-04-10T10:19:28;100134.47;;;17.61;43.77
9523;BME280;63165;43.016;25.784;2023-04-10T10:21:59;100124.69;;;17.63;43.92
9523;BME280;63165;43.016;25.784;2023-04-10T10:24:27;100118.66;;;17.59;43.46
9523;BME280;63165;43.016;25.784;2023-04-10T10:26:56;100119.78;;;17.54;43.33
9523;BME280;63165;43.016;25.784;2023-04-10T10:29:31;100112.88;;;17.51;43.74
9523;BME280;63165;43.016;25.784;2023-04-10T10:31:59;100116.41;;;17.50;43.98
9523;BME280;63165;43.016;25.784;2023-04-10T10:34:28;100105.72;;;17.53;44.10
9523;BME280;63165;43.016;25.784;2023-04-10T10:36:57;100104.94;;;17.51;45.32
9523;BME280;63165;43.016;25.784;2023-04-10T10:39:30;100101.28;;;17.54;45.05
9523;BME280;63165;43.016;25.784;2023-04-10T10:42:04;100100.53;;;17.50;44.88
9523;BME280;63165;43.016;25.784;2023-04-10T10:44:41;100101.44;;;17.51;44.78
9523;BME280;63165;43.016;25.784;2023-04-10T10:47:15;100095.47;;;17.45;44.43
9523;BME280;63165;43.016;25.784;2023-04-10T10:49:54;100086.94;;;17.39;44.86
9523;BME280;63165;43.016;25.784;2023-04-10T10:52:37;100080.69;;;17.41;44.70
9523;BME280;63165;43.016;25.784;2023-04-10T10:55:30;100086.03;;;17.40;44.34
9523;BME280;63165;43.016;25.784;2023-04-10T10:58:00;100075.28;;;17.43;44.56
9523;BME280;63165;43.016;25.784;2023-04-10T11:03:45;100078.22;;;17.37;45.05
9523;BME280;63165;43.016;25.784;2023-04-10T11:06:14;100069.72;;;17.30;45.26
9523;BME280;63165;43.016;25.784;2023-04-10T11:08:43;100063.53;;;17.30;45.55
9523;BME280;63165;43.016;25.784;2023-04-10T11:11:19;100062.63;;;17.31;45.35
9523;BME280;63165;43.016;25.784;2023-04-10T11:14:17;100065.22;;;17.32;46.13
9523;BME280;63165;43.016;25.784;2023-04-10T11:16:46;100058.00;;;17.36;46.07
9523;BME280;63165;43.016;25.784;2023-04-10T11:19:15;100062.63;;;17.31;45.88
9523;BME280;63165;43.016;25.784;2023-04-10T11:22:07;100052.97;;;17.30;45.15
9523;BME280;63165;43.016;25.784;2023-04-10T11:24:55;100040.63;;;17.30;45.37
9523;BME280;63165;43.016;25.784;2023-04-10T11:27:50;100053.84;;;17.30;45.15
9523;BME280;63165;43.016;25.784;2023-04-10T11:30:33;100049.53;;;17.27;44.46
9523;BME280;63165;43.016;25.784;2023-04-10T11:33:01;100053.31;;;17.22;44.81
9523;BME280;63165;43.016;25.784;2023-04-10T11:35:31;100053.59;;;17.16;44.42
9523;BME280;63165;43.016;25.784;2023-04-10T11:38:11;100044.31;;;17.05;44.73
9523;BME280;63165;43.016;25.784;2023-04-10T11:40:58;100058.59;;;17.01;45.00
9523;BME280;63165;43.016;25.784;2023-04-10T11:43:26;100066.41;;;16.84;45.24
9523;BME280;63165;43.016;25.784;2023-04-10T11:46:01;100059.94;;;16.69;46.34
9523;BME280;63165;43.016;25.784;2023-04-10T11:48:29;100064.03;;;16.56;46.39
9523;BME280;63165;43.016;25.784;2023-04-10T11:51:06;100053.09;;;16.43;46.24
9523;BME280;63165;43.016;25.784;2023-04-10T11:53:35;100058.28;;;16.24;46.80
9523;BME280;63165;43.016;25.784;2023-04-10T11:56:02;100056.16;;;16.10;47.56
9523;BME280;63165;43.016;25.784;2023-04-10T11:58:32;100050.59;;;15.96;47.83
9523;BME280;63165;43.016;25.784;2023-04-10T12:01:01;100037.84;;;15.83;48.38
9523;BME280;63165;43.016;25.784;2023-04-10T12:03:35;100034.38;;;15.83;48.80
9523;BME280;63165;43.016;25.784;2023-04-10T12:06:06;100036.25;;;15.79;49.21
9523;BME280;63165;43.016;25.784;2023-04-10T12:08:36;100036.22;;;15.81;49.08
9523;BME280;63165;43.016;25.784;2023-04-10T12:11:03;100026.88;;;15.70;49.62
9523;BME280;63165;43.016;25.784;2023-04-10T12:13:31;100020.13;;;15.63;49.35
9523;BME280;63165;43.016;25.784;2023-04-10T12:15:59;100009.69;;;15.60;49.56
9523;BME280;63165;43.016;25.784;2023-04-10T12:18:27;100019.50;;;15.57;49.77
9523;BME280;63165;43.016;25.784;2023-04-10T12:20:55;100016.16;;;15.51;50.00
9523;BME280;63165;43.016;25.784;2023-04-10T12:23:27;100018.00;;;15.49;50.13
9523;BME280;63165;43.016;25.784;2023-04-10T12:26:07;100004.81;;;15.49;50.55
9523;BME280;63165;43.016;25.784;2023-04-10T12:28:36;100003.22;;;15.45;50.39
9523;BME280;63165;43.016;25.784;2023-04-10T12:31:03;100012.03;;;15.44;50.19
9523;BME280;63165;43.016;25.784;2023-04-10T12:33:31;100002.34;;;15.45;50.38
9523;BME280;63165;43.016;25.784;2023-04-10T12:35:58;100003.19;;;15.47;50.81
9523;BME280;63165;43.016;25.784;2023-04-10T12:38:38;100005.91;;;15.44;50.98
9523;BME280;63165;43.016;25.784;2023-04-10T12:41:19;100008.66;;;15.41;51.27
9523;BME280;63165;43.016;25.784;2023-04-10T12:43:47;99993.63;;;15.43;51.23
9523;BME280;63165;43.016;25.784;2023-04-10T12:46:24;99991.75;;;15.46;50.93
9523;BME280;63165;43.016;25.784;2023-04-10T12:48:51;99987.91;;;15.55;51.02
9523;BME280;63165;43.016;25.784;2023-04-10T12:51:19;99975.63;;;15.54;51.21
9523;BME280;63165;43.016;25.784;2023-04-10T12:53:48;99982.59;;;15.57;50.69
9523;BME280;63165;43.016;25.784;2023-04-10T12:56:15;99974.63;;;15.58;50.60
9523;BME280;63165;43.016;25.784;2023-04-10T12:58:44;99972.59;;;15.65;50.37
9523;BME280;63165;43.016;25.784;2023-04-10T13:01:12;99975.69;;;15.76;50.40
9523;BME280;63165;43.016;25.784;2023-04-10T13:03:39;99962.16;;;15.85;49.27
9523;BME280;63165;43.016;25.784;2023-04-10T13:06:07;99954.97;;;15.89;49.35
9523;BME280;63165;43.016;25.784;2023-04-10T13:08:35;99961.53;;;16.01;49.17
9523;BME280;63165;43.016;25.784;2023-04-10T13:11:17;99948.84;;;16.10;49.40